sensor_id;sensor_type;location;lat;lon;timestamp;P1;durP1;ratioP1;P2;durP2;ratioP2
48873;SDS011;66155;46.204;5.220;2023-12-07T00:00:43;53.58;;;51.58;;
48873;SDS011;66155;46.204;5.220;2023-12-07T00:05:43;50.50;;;48.60;;
48873;SDS011;66155;46.204;5.220;2023-12-07T00:10:44;55.43;;;53.33;;
48873;SDS011;66155;46.204;5.220;2023-12-07T00:15:44;56.77;;;54.67;;
48873;SDS011;66155;46.204;5.220;2023-12-07T00:20:44;60.63;;;58.43;;
48873;SDS011;66155;46.204;5.220;2023-12-07T00:25:45;59.20;;;57.00;;
48873;SDS011;66155;46.204;5.220;2023-12-07T00:30:45;51.45;;;49.55;;
48873;SDS011;66155;46.204;5.220;2023-12-07T00:35:46;53.75;;;51.75;;
48873;SDS011;66155;46.204;5.220;2023-12-07T00:40:47;48.07;;;46.27;;
48873;SDS011;66155;46.204;5.220;2023-12-07T00:45:47;45.97;;;44.28;;
48873;SDS011;66155;46.204;5.220;2023-12-07T00:50:47;55.07;;;53.03;;
48873;SDS011;66155;46.204;5.220;2023-12-07T00:55:48;52.67;;;50.73;;
48873;SDS011;66155;46.204;5.220;2023-12-07T01:00:48;54.73;;;52.73;;
48873;SDS011;66155;46.204;5.220;2023-12-07T01:05:49;62.25;;;59.95;;
48873;SDS011;66155;46.204;5.220;2023-12-07T01:10:49;62.17;;;59.87;;
48873;SDS011;66155;46.204;5.220;2023-12-07T01:15:50;61.30;;;59.10;;
48873;SDS011;66155;46.204;5.220;2023-12-07T01:20:50;52.78;;;50.78;;
48873;SDS011;66155;46.204;5.220;2023-12-07T01:25:51;58.27;;;56.17;;
48873;SDS011;66155;46.204;5.220;2023-12-07T01:30:51;51.80;;;49.90;;
48873;SDS011;66155;46.204;5.220;2023-12-07T01:35:51;58.80;;;56.70;;
48873;SDS011;66155;46.204;5.220;2023-12-07T01:40:52;50.27;;;48.37;;
48873;SDS011;66155;46.204;5.220;2023-12-07T01:45:52;54.30;;;52.30;;
48873;SDS011;66155;46.204;5.220;2023-12-07T01:50:56;47.50;;;45.72;;
48873;SDS011;66155;46.204;5.220;2023-12-07T01:55:58;55.60;;;53.58;;
48873;SDS011;66155;46.204;5.220;2023-12-07T02:00:59;55.35;;;53.35;;
48873;SDS011;66155;46.204;5.220;2023-12-07T02:06:00;54.92;;;52.92;;
48873;SDS011;66155;46.204;5.220;2023-12-07T02:11:01;56.15;;;54.05;;
48873;SDS011;66155;46.204;5.220;2023-12-07T02:16:03;61.45;;;59.25;;
48873;SDS011;66155;46.204;5.220;2023-12-07T02:26:19;62.55;;;60.25;;
48873;SDS011;66155;46.204;5.220;2023-12-07T02:31:21;61.95;;;59.65;;
48873;SDS011;66155;46.204;5.220;2023-12-07T02:36:22;59.40;;;57.20;;
48873;SDS011;66155;46.204;5.220;2023-12-07T02:41:24;59.92;;;57.72;;
48873;SDS011;66155;46.204;5.220;2023-12-07T02:46:26;55.72;;;53.63;;
48873;SDS011;66155;46.204;5.220;2023-12-07T02:51:27;50.97;;;49.08;;
48873;SDS011;66155;46.204;5.220;2023-12-07T02:56:27;54.47;;;52.47;;
48873;SDS011;66155;46.204;5.220;2023-12-07T03:01:27;50.87;;;48.97;;
48873;SDS011;66155;46.204;5.220;2023-12-07T03:06:28;52.93;;;51.00;;
48873;SDS011;66155;46.204;5.220;2023-12-07T03:11:28;58.17;;;56.07;;
48873;SDS011;66155;46.204;5.220;2023-12-07T03:16:28;56.58;;;54.47;;
48873;SDS011;66155;46.204;5.220;2023-12-07T03:21:29;61.70;;;59.40;;
48873;SDS011;66155;46.204;5.220;2023-12-07T03:26:29;54.43;;;52.43;;
48873;SDS011;66155;46.204;5.220;2023-12-07T03:31:29;59.93;;;57.73;;
48873;SDS011;66155;46.204;5.220;2023-12-07T03:36:30;59.37;;;57.17;;
48873;SDS011;66155;46.204;5.220;2023-12-07T03:41:30;49.83;;;48.03;;
48873;SDS011;66155;46.204;5.220;2023-12-07T03:46:30;52.60;;;50.70;;
48873;SDS011;66155;46.204;5.220;2023-12-07T03:51:31;52.23;;;50.33;;
48873;SDS011;66155;46.204;5.220;2023-12-07T03:56:32;50.20;;;48.33;;
48873;SDS011;66155;46.204;5.220;2023-12-07T04:01:33;55.63;;;53.55;;
48873;SDS011;66155;46.204;5.220;2023-12-07T04:06:33;52.57;;;50.63;;
48873;SDS011;66155;46.204;5.220;2023-12-07T04:11:34;65.67;;;63.27;;
48873;SDS011;66155;46.204;5.220;2023-12-07T04:16:34;54.67;;;52.67;;
48873;SDS011;66155;46.204;5.220;2023-12-07T04:21:34;50.47;;;48.57;;
48873;SDS011;66155;46.204;5.220;2023-12-07T04:26:35;53.73;;;51.73;;
48873;SDS011;66155;46.204;5.220;2023-12-07T04:31:35;54.20;;;52.20;;
48873;SDS011;66155;46.204;5.220;2023-12-07T04:36:36;50.42;;;48.53;;
48873;SDS011;66155;46.204;5.220;2023-12-07T04:41:36;50.60;;;48.70;;
48873;SDS011;66155;46.204;5.220;2023-12-07T04:46:36;58.73;;;56.53;;
48873;SDS011;66155;46.204;5.220;2023-12-07T04:51:37;53.57;;;51.57;;
48873;SDS011;66155;46.204;5.220;2023-12-07T04:56:37;55.90;;;53.80;;
48873;SDS011;66155;46.204;5.220;2023-12-07T05:01:38;50.70;;;48.80;;
48873;SDS011;66155;46.204;5.220;2023-12-07T05:06:38;52.03;;;50.13;;
48873;SDS011;66155;46.204;5.220;2023-12-07T05:11:39;51.20;;;49.30;;
48873;SDS011;66155;46.204;5.220;2023-12-07T05:16:40;53.30;;;51.30;;
48873;SDS011;66155;46.204;5.220;2023-12-07T05:21:40;52.17;;;50.28;;
48873;SDS011;66155;46.204;5.220;2023-12-07T05:26:41;50.50;;;48.60;;
48873;SDS011;66155;46.204;5.220;2023-12-07T05:31:42;48.80;;;47.00;;
48873;SDS011;66155;46.204;5.220;2023-12-07T05:36:42;49.00;;;47.20;;
48873;SDS011;66155;46.204;5.220;2023-12-07T05:41:43;47.23;;;45.47;;
48873;SDS011;66155;46.204;5.220;2023-12-07T05:46:43;48.30;;;46.50;;
48873;SDS011;66155;46.204;5.220;2023-12-07T05:51:44;42.72;;;41.13;;
48873;SDS011;66155;46.204;5.220;2023-12-07T05:56:44;46.73;;;44.97;;
48873;SDS011;66155;46.204;5.220;2023-12-07T06:01:46;42.55;;;40.95;;
48873;SDS011;66155;46.204;5.220;2023-12-07T06:06:46;48.80;;;47.00;;
48873;SDS011;66155;46.204;5.220;2023-12-07T06:11:47;45.42;;;43.72;;
48873;SDS011;66155;46.204;5.220;2023-12-07T06:16:48;45.13;;;43.42;;
48873;SDS011;66155;46.204;5.220;2023-12-07T06:21:49;2.88;;;2.78;;
48873;SDS011;66155;46.204;5.220;2023-12-07T06:26:49;1.40;;;1.40;;
48873;SDS011;66155;46.204;5.220;2023-12-07T06:31:50;1.50;;;1.50;;
48873;SDS011;66155;46.204;5.220;2023-12-07T06:36:50;2.00;;;1.90;;
48873;SDS011;66155;46.204;5.220;2023-12-07T06:41:51;1.40;;;1.40;;
48873;SDS011;66155;46.204;5.220;2023-12-07T06:46:51;1.40;;;1.40;;
48873;SDS011;66155;46.204;5.220;2023-12-07T06:51:51;1.50;;;1.50;;
48873;SDS011;66155;46.204;5.220;2023-12-07T06:56:52;1.47;;;1.47;;
48873;SDS011;66155;46.204;5.220;2023-12-07T07:01:52;1.20;;;1.20;;
48873;SDS011;66155;46.204;5.220;2023-12-07T07:06:53;1.30;;;1.30;;
48873;SDS011;66155;46.204;5.220;2023-12-07T07:11:53;1.30;;;1.30;;
48873;SDS011;66155;46.204;5.220;2023-12-07T07:16:53;1.20;;;1.20;;
48873;SDS011;66155;46.204;5.220;2023-12-07T07:21:54;1.20;;;1.20;;
48873;SDS011;66155;46.204;5.220;2023-12-07T07:26:54;1.38;;;1.38;;
48873;SDS011;66155;46.204;5.220;2023-12-07T07:31:55;1.27;;;1.27;;
48873;SDS011;66155;46.204;5.220;2023-12-07T07:36:55;1.27;;;1.27;;
48873;SDS011;66155;46.204;5.220;2023-12-07T07:41:56;1.37;;;1.37;;
48873;SDS011;66155;46.204;5.220;2023-12-07T07:46:56;1.30;;;1.30;;
48873;SDS011;66155;46.204;5.220;2023-12-07T07:51:57;1.40;;;1.40;;
48873;SDS011;66155;46.204;5.220;2023-12-07T07:56:57;5.00;;;4.80;;
48873;SDS011;66155;46.204;5.220;2023-12-07T08:01:57;5.20;;;4.90;;
48873;SDS011;66155;46.204;5.220;2023-12-07T08:06:58;6.17;;;5.87;;
48873;SDS011;66155;46.204;5.220;2023-12-07T08:11:58;6.88;;;6.47;;
48873;SDS011;66155;46.204;5.220;2023-12-07T08:16:59;6.88;;;6.50;;
48873;SDS011;66155;46.204;5.220;2023-12-07T08:21:59;7.20;;;6.70;;
48873;SDS011;66155;46.204;5.220;2023-12-07T08:27:00;7.25;;;6.85;;
48873;SDS011;66155;46.204;5.220;2023-12-07T08:32:00;7.05;;;6.65;;
48873;SDS011;66155;46.204;5.220;2023-12-07T08:37:01;7.07;;;6.65;;
48873;SDS011;66155;46.204;5.220;2023-12-07T08:42:04;7.13;;;6.72;;
48873;SDS011;66155;46.204;5.220;2023-12-07T08:47:04;6.97;;;6.57;;
48873;SDS011;66155;46.204;5.220;2023-12-07T08:52:05;7.10;;;6.70;;
48873;SDS011;66155;46.204;5.220;2023-12-07T08:57:06;7.43;;;7.03;;
48873;SDS011;66155;46.204;5.220;2023-12-07T09:02:07;7.13;;;6.72;;
48873;SDS011;66155;46.204;5.220;2023-12-07T09:07:08;7.25;;;6.85;;
48873;SDS011;66155;46.204;5.220;2023-12-07T09:12:10;7.60;;;7.20;;
48873;SDS011;66155;46.204;5.220;2023-12-07T09:17:10;8.00;;;7.60;;
48873;SDS011;66155;46.204;5.220;2023-12-07T09:22:11;6.80;;;6.40;;
48873;SDS011;66155;46.204;5.220;2023-12-07T09:27:13;8.43;;;7.85;;
48873;SDS011;66155;46.204;5.220;2023-12-07T09:32:14;7.78;;;7.18;;
48873;SDS011;66155;46.204;5.220;2023-12-07T09:37:14;7.40;;;6.93;;
48873;SDS011;66155;46.204;5.220;2023-12-07T09:42:15;8.07;;;7.38;;
48873;SDS011;66155;46.204;5.220;2023-12-07T09:47:15;6.78;;;6.30;;
48873;SDS011;66155;46.204;5.220;2023-12-07T09:52:16;8.50;;;8.00;;
48873;SDS011;66155;46.204;5.220;2023-12-07T09:57:17;7.47;;;7.07;;
48873;SDS011;66155;46.204;5.220;2023-12-07T10:02:17;7.90;;;7.45;;
48873;SDS011;66155;46.204;5.220;2023-12-07T10:07:18;7.38;;;6.88;;
48873;SDS011;66155;46.204;5.220;2023-12-07T10:12:34;7.40;;;6.90;;
48873;SDS011;66155;46.204;5.220;2023-12-07T10:23:06;6.28;;;5.95;;
48873;SDS011;66155;46.204;5.220;2023-12-07T10:28:08;6.38;;;6.03;;
48873;SDS011;66155;46.204;5.220;2023-12-07T10:33:11;7.30;;;6.90;;
48873;SDS011;66155;46.204;5.220;2023-12-07T10:38:13;6.72;;;6.43;;
48873;SDS011;66155;46.204;5.220;2023-12-07T10:43:13;6.25;;;5.95;;
48873;SDS011;66155;46.204;5.220;2023-12-07T10:48:19;6.83;;;6.43;;
48873;SDS011;66155;46.204;5.220;2023-12-07T10:53:21;6.85;;;6.45;;
48873;SDS011;66155;46.204;5.220;2023-12-07T10:58:28;7.55;;;7.15;;
48873;SDS011;66155;46.204;5.220;2023-12-07T11:03:28;7.43;;;7.03;;
48873;SDS011;66155;46.204;5.220;2023-12-07T11:08:51;9.00;;;8.60;;
48873;SDS011;66155;46.204;5.220;2023-12-07T11:13:59;7.10;;;6.70;;
48873;SDS011;66155;46.204;5.220;2023-12-07T11:19:04;7.93;;;7.53;;
48873;SDS011;66155;46.204;5.220;2023-12-07T11:24:07;8.27;;;7.88;;
48873;SDS011;66155;46.204;5.220;2023-12-07T11:29:07;7.97;;;7.53;;
48873;SDS011;66155;46.204;5.220;2023-12-07T11:34:08;7.85;;;7.35;;
48873;SDS011;66155;46.204;5.220;2023-12-07T11:44:14;7.18;;;6.78;;
48873;SDS011;66155;46.204;5.220;2023-12-07T11:49:17;7.57;;;7.18;;
48873;SDS011;66155;46.204;5.220;2023-12-07T11:54:18;7.90;;;7.50;;
48873;SDS011;66155;46.204;5.220;2023-12-07T11:59:18;7.60;;;7.10;;
48873;SDS011;66155;46.204;5.220;2023-12-07T12:04:18;7.82;;;7.32;;
48873;SDS011;66155;46.204;5.220;2023-12-07T12:09:21;7.35;;;6.95;;
48873;SDS011;66155;46.204;5.220;2023-12-07T12:14:23;8.02;;;7.57;;
48873;SDS011;66155;46.204;5.220;2023-12-07T12:19:24;7.13;;;6.72;;
48873;SDS011;66155;46.204;5.220;2023-12-07T12:24:25;7.85;;;7.35;;
48873;SDS011;66155;46.204;5.220;2023-12-07T12:29:26;7.07;;;6.68;;
48873;SDS011;66155;46.204;5.220;2023-12-07T12:34:26;8.07;;;7.60;;
48873;SDS011;66155;46.204;5.220;2023-12-07T12:39:30;6.70;;;6.30;;
48873;SDS011;66155;46.204;5.220;2023-12-07T12:44:31;6.80;;;6.43;;
48873;SDS011;66155;46.204;5.220;2023-12-07T12:49:35;7.15;;;6.75;;
48873;SDS011;66155;46.204;5.220;2023-12-07T12:54:36;7.38;;;6.97;;
48873;SDS011;66155;46.204;5.220;2023-12-07T12:59:37;7.40;;;7.05;;
48873;SDS011;66155;46.204;5.220;2023-12-07T13:04:39;6.60;;;6.30;;
48873;SDS011;66155;46.204;5.220;2023-12-07T13:09:40;6.82;;;6.53;;
48873;SDS011;66155;46.204;5.220;2023-12-07T13:14:41;7.43;;;7.03;;
48873;SDS011;66155;46.204;5.220;2023-12-07T13:19:41;7.72;;;7.32;;
48873;SDS011;66155;46.204;5.220;2023-12-07T13:24:41;7.88;;;7.47;;
48873;SDS011;66155;46.204;5.220;2023-12-07T13:29:42;8.27;;;7.80;;
48873;SDS011;66155;46.204;5.220;2023-12-07T13:34:42;7.85;;;7.45;;
48873;SDS011;66155;46.204;5.220;2023-12-07T13:39:43;7.38;;;6.97;;
48873;SDS011;66155;46.204;5.220;2023-12-07T13:44:43;7.90;;;7.50;;
48873;SDS011;66155;46.204;5.220;2023-12-07T13:49:44;8.77;;;8.27;;
48873;SDS011;66155;46.204;5.220;2023-12-07T13:54:45;8.13;;;7.53;;
48873;SDS011;66155;46.204;5.220;2023-12-07T13:59:45;7.88;;;7.45;;
48873;SDS011;66155;46.204;5.220;2023-12-07T14:04:46;8.23;;;7.72;;
48873;SDS011;66155;46.204;5.220;2023-12-07T14:09:50;8.35;;;7.95;;
48873;SDS011;66155;46.204;5.220;2023-12-07T14:14:52;8.80;;;8.23;;
48873;SDS011;66155;46.204;5.220;2023-12-07T14:19:52;8.68;;;8.07;;
48873;SDS011;66155;46.204;5.220;2023-12-07T14:24:53;9.00;;;8.40;;
48873;SDS011;66155;46.204;5.220;2023-12-07T14:29:54;8.05;;;7.55;;
48873;SDS011;66155;46.204;5.220;2023-12-07T14:34:54;9.15;;;8.65;;
48873;SDS011;66155;46.204;5.220;2023-12-07T14:39:55;7.00;;;6.60;;
48873;SDS011;66155;46.204;5.220;2023-12-07T14:44:56;7.68;;;7.28;;
48873;SDS011;66155;46.204;5.220;2023-12-07T14:49:56;8.52;;;8.02;;
48873;SDS011;66155;46.204;5.220;2023-12-07T14:54:57;7.40;;;7.00;;
48873;SDS011;66155;46.204;5.220;2023-12-07T14:59:57;8.45;;;8.05;;
48873;SDS011;66155;46.204;5.220;2023-12-07T15:04:58;8.35;;;7.95;;
48873;SDS011;66155;46.204;5.220;2023-12-07T15:09:58;7.55;;;7.15;;
48873;SDS011;66155;46.204;5.220;2023-12-07T15:14:59;7.30;;;6.90;;
48873;SDS011;66155;46.204;5.220;2023-12-07T15:19:59;7.50;;;7.10;;
48873;SDS011;66155;46.204;5.220;2023-12-07T15:24:59;7.50;;;7.10;;
48873;SDS011;66155;46.204;5.220;2023-12-07T15:30:00;7.63;;;7.22;;
48873;SDS011;66155;46.204;5.220;2023-12-07T15:35:00;7.25;;;6.95;;
48873;SDS011;66155;46.204;5.220;2023-12-07T15:40:01;7.85;;;7.45;;
48873;SDS011;66155;46.204;5.220;2023-12-07T15:45:07;6.22;;;5.93;;
48873;SDS011;66155;46.204;5.220;2023-12-07T15:50:08;6.25;;;5.95;;
48873;SDS011;66155;46.204;5.220;2023-12-07T15:55:11;8.05;;;7.65;;
48873;SDS011;66155;46.204;5.220;2023-12-07T16:00:11;7.65;;;7.25;;
48873;SDS011;66155;46.204;5.220;2023-12-07T16:05:12;8.40;;;8.00;;
48873;SDS011;66155;46.204;5.220;2023-12-07T16:10:12;7.65;;;7.25;;
48873;SDS011;66155;46.204;5.220;2023-12-07T16:15:13;7.35;;;6.95;;
48873;SDS011;66155;46.204;5.220;2023-12-07T16:20:15;6.95;;;6.55;;
48873;SDS011;66155;46.204;5.220;2023-12-07T16:25:16;7.10;;;6.70;;
48873;SDS011;66155;46.204;5.220;2023-12-07T16:30:16;6.88;;;6.47;;
48873;SDS011;66155;46.204;5.220;2023-12-07T16:35:18;7.55;;;6.95;;
48873;SDS011;66155;46.204;5.220;2023-12-07T16:40:18;7.85;;;7.35;;
48873;SDS011;66155;46.204;5.220;2023-12-07T16:45:19;7.35;;;6.85;;
48873;SDS011;66155;46.204;5.220;2023-12-07T16:50:20;7.47;;;6.97;;
48873;SDS011;66155;46.204;5.220;2023-12-07T16:55:21;7.47;;;7.07;;
48873;SDS011;66155;46.204;5.220;2023-12-07T17:00:22;7.35;;;6.95;;
48873;SDS011;66155;46.204;5.220;2023-12-07T17:05:23;6.47;;;6.18;;
48873;SDS011;66155;46.204;5.220;2023-12-07T17:10:23;7.18;;;6.78;;
48873;SDS011;66155;46.204;5.220;2023-12-07T17:15:24;7.38;;;6.97;;
48873;SDS011;66155;46.204;5.220;2023-12-07T17:20:24;6.82;;;6.43;;
48873;SDS011;66155;46.204;5.220;2023-12-07T17:25:25;7.57;;;7.07;;
48873;SDS011;66155;46.204;5.220;2023-12-07T17:30:25;8.35;;;7.85;;
48873;SDS011;66155;46.204;5.220;2023-12-07T17:35:26;9.50;;;8.90;;
48873;SDS011;66155;46.204;5.220;2023-12-07T17:40:26;9.30;;;8.57;;
48873;SDS011;66155;46.204;5.220;2023-12-07T17:45:27;8.93;;;8.23;;
48873;SDS011;66155;46.204;5.220;2023-12-07T17:50:27;7.82;;;7.22;;
48873;SDS011;66155;46.204;5.220;2023-12-07T17:55:28;8.73;;;8.02;;
48873;SDS011;66155;46.204;5.220;2023-12-07T18:00:29;8.68;;;8.00;;
48873;SDS011;66155;46.204;5.220;2023-12-07T18:05:29;8.45;;;7.75;;
48873;SDS011;66155;46.204;5.220;2023-12-07T18:10:30;8.95;;;8.35;;
48873;SDS011;66155;46.204;5.220;2023-12-07T18:15:31;9.13;;;8.52;;
48873;SDS011;66155;46.204;5.220;2023-12-07T18:20:31;8.10;;;7.60;;
48873;SDS011;66155;46.204;5.220;2023-12-07T18:25:32;8.10;;;7.60;;
48873;SDS011;66155;46.204;5.220;2023-12-07T18:30:32;8.00;;;7.50;;
48873;SDS011;66155;46.204;5.220;2023-12-07T18:35:33;7.97;;;7.40;;
48873;SDS011;66155;46.204;5.220;2023-12-07T18:40:33;8.13;;;7.63;;
48873;SDS011;66155;46.204;5.220;2023-12-07T18:45:35;7.57;;;7.10;;
48873;SDS011;66155;46.204;5.220;2023-12-07T18:50:37;7.55;;;7.10;;
48873;SDS011;66155;46.204;5.220;2023-12-07T18:55:37;7.93;;;7.32;;
48873;SDS011;66155;46.204;5.220;2023-12-07T19:00:38;6.72;;;6.22;;
48873;SDS011;66155;46.204;5.220;2023-12-07T19:05:38;7.60;;;7.00;;
48873;SDS011;66155;46.204;5.220;2023-12-07T19:10:41;7.95;;;7.45;;
48873;SDS011;66155;46.204;5.220;2023-12-07T19:15:42;9.23;;;8.63;;
48873;SDS011;66155;46.204;5.220;2023-12-07T19:20:42;8.75;;;8.18;;
48873;SDS011;66155;46.204;5.220;2023-12-07T19:25:43;8.23;;;7.70;;
48873;SDS011;66155;46.204;5.220;2023-12-07T19:30:43;8.88;;;8.32;;
48873;SDS011;66155;46.204;5.220;2023-12-07T19:35:43;7.78;;;7.28;;
48873;SDS011;66155;46.204;5.220;2023-12-07T19:40:44;8.48;;;7.97;;
48873;SDS011;66155;46.204;5.220;2023-12-07T19:45:44;7.97;;;7.47;;
48873;SDS011;66155;46.204;5.220;2023-12-07T19:50:45;7.97;;;7.38;;
48873;SDS011;66155;46.204;5.220;2023-12-07T19:55:45;7.20;;;6.80;;
48873;SDS011;66155;46.204;5.220;2023-12-07T20:00:47;7.97;;;7.47;;
48873;SDS011;66155;46.204;5.220;2023-12-07T20:05:47;7.75;;;7.15;;
48873;SDS011;66155;46.204;5.220;2023-12-07T20:10:48;7.70;;;7.20;;
48873;SDS011;66155;46.204;5.220;2023-12-07T20:15:48;7.35;;;6.85;;
48873;SDS011;66155;46.204;5.220;2023-12-07T20:20:49;8.00;;;7.40;;
48873;SDS011;66155;46.204;5.220;2023-12-07T20:25:49;7.70;;;7.20;;
48873;SDS011;66155;46.204;5.220;2023-12-07T20:30:50;7.70;;;7.20;;
48873;SDS011;66155;46.204;5.220;2023-12-07T20:35:50;8.85;;;8.25;;
48873;SDS011;66155;46.204;5.220;2023-12-07T20:40:51;7.50;;;7.00;;
48873;SDS011;66155;46.204;5.220;2023-12-07T20:45:51;8.45;;;7.95;;
48873;SDS011;66155;46.204;5.220;2023-12-07T20:50:53;8.20;;;7.60;;
48873;SDS011;66155;46.204;5.220;2023-12-07T20:55:54;9.05;;;8.50;;
48873;SDS011;66155;46.204;5.220;2023-12-07T21:00:55;7.65;;;7.15;;
48873;SDS011;66155;46.204;5.220;2023-12-07T21:05:55;8.02;;;7.45;;
48873;SDS011;66155;46.204;5.220;2023-12-07T21:10:57;7.82;;;7.32;;
48873;SDS011;66155;46.204;5.220;2023-12-07T21:15:58;8.35;;;7.78;;
48873;SDS011;66155;46.204;5.220;2023-12-07T21:20:58;8.20;;;7.70;;
48873;SDS011;66155;46.204;5.220;2023-12-07T21:26:00;8.25;;;7.75;;
48873;SDS011;66155;46.204;5.220;2023-12-07T21:31:02;7.95;;;7.38;;
48873;SDS011;66155;46.204;5.220;2023-12-07T21:36:03;6.95;;;6.53;;
48873;SDS011;66155;46.204;5.220;2023-12-07T21:41:04;6.70;;;6.30;;
48873;SDS011;66155;46.204;5.220;2023-12-07T21:46:06;6.93;;;6.43;;
48873;SDS011;66155;46.204;5.220;2023-12-07T21:51:06;7.22;;;6.70;;
48873;SDS011;66155;46.204;5.220;2023-12-07T21:56:07;7.93;;;7.43;;
48873;SDS011;66155;46.204;5.220;2023-12-07T22:01:07;7.53;;;7.03;;
48873;SDS011;66155;46.204;5.220;2023-12-07T22:06:08;7.82;;;7.18;;
48873;SDS011;66155;46.204;5.220;2023-12-07T22:11:08;7.35;;;6.85;;
48873;SDS011;66155;46.204;5.220;2023-12-07T22:16:09;7.78;;;7.28;;
48873;SDS011;66155;46.204;5.220;2023-12-07T22:21:10;8.75;;;8.02;;
48873;SDS011;66155;46.204;5.220;2023-12-07T22:26:10;7.72;;;7.13;;
48873;SDS011;66155;46.204;5.220;2023-12-07T22:31:11;7.30;;;6.85;;
48873;SDS011;66155;46.204;5.220;2023-12-07T22:36:15;8.10;;;7.50;;
48873;SDS011;66155;46.204;5.220;2023-12-07T22:41:15;9.02;;;8.43;;
48873;SDS011;66155;46.204;5.220;2023-12-07T22:46:15;7.68;;;7.13;;
48873;SDS011;66155;46.204;5.220;2023-12-07T22:51:16;7.82;;;7.25;;
48873;SDS011;66155;46.204;5.220;2023-12-07T22:56:16;8.52;;;7.93;;
48873;SDS011;66155;46.204;5.220;2023-12-07T23:01:17;8.30;;;7.75;;
48873;SDS011;66155;46.204;5.220;2023-12-07T23:06:17;8.15;;;7.55;;
48873;SDS011;66155;46.204;5.220;2023-12-07T23:11:17;7.85;;;7.35;;
48873;SDS011;66155;46.204;5.220;2023-12-07T23:16:18;7.85;;;7.35;;
48873;SDS011;66155;46.204;5.220;2023-12-07T23:21:20;7.15;;;6.65;;
48873;SDS011;66155;46.204;5.220;2023-12-07T23:26:20;8.30;;;7.80;;
48873;SDS011;66155;46.204;5.220;2023-12-07T23:31:20;8.90;;;8.40;;
48873;SDS011;66155;46.204;5.220;2023-12-07T23:36:21;10.05;;;9.35;;
48873;SDS011;66155;46.204;5.220;2023-12-07T23:41:21;9.02;;;8.32;;
48873;SDS011;66155;46.204;5.220;2023-12-07T23:46:22;8.90;;;8.30;;
48873;SDS011;66155;46.204;5.220;2023-12-07T23:51:23;10.02;;;9.43;;
48873;SDS011;66155;46.204;5.220;2023-12-07T23:56:24;8.45;;;7.93;;
